EWG4MR EDDM-LFPO
Flight info
| Callsign | EWG4MR |
|---|---|
| Flight time | N/A |
| Altitude | 32000 |
| Route | GIVMI1N/26R GIVMI Y101 INBED DCT REKDI DCT LOHRE DCT BOMBI DCT RUDUS DCT BETEX DCT DIK UN857 TOLVU DCT RAPOR DCT RENSA |
| Aircraft | B738/M-SDE2E3FGHIRWXY/LB1 |
Departure
| Time | N/A |
|---|---|
| Airport | Munich Airport (EDDM) |
Arrival
| Time | 2026-05-07 18:31 |
|---|---|
| Airport | Paris-Orly Airport (LFPO) |
| Time | Latitude | Longitude | Altitude | Speed | Heading |
|---|---|---|---|---|---|
| 2026-05-07 17:12 | 48.70226 | 11.35788 | 17336 ft | 410 kts | 336° |
| 2026-05-07 17:13 | 48.72785 | 11.33904 | 17949 ft | 412 kts | 328° |
| 2026-05-07 17:13 | 48.75218 | 11.31682 | 18559 ft | 415 kts | 325° |
| 2026-05-07 17:13 | 48.77650 | 11.29231 | 19192 ft | 419 kts | 323° |
| 2026-05-07 17:13 | 48.80041 | 11.26702 | 19844 ft | 421 kts | 322° |
| 2026-05-07 17:14 | 48.82442 | 11.24169 | 20528 ft | 424 kts | 324° |
| 2026-05-07 17:14 | 48.84955 | 11.21880 | 21211 ft | 426 kts | 330° |
| 2026-05-07 17:14 | 48.87670 | 11.20012 | 21897 ft | 429 kts | 336° |
| 2026-05-07 17:14 | 48.90447 | 11.18460 | 22519 ft | 431 kts | 339° |
| 2026-05-07 17:15 | 48.93310 | 11.17028 | 23125 ft | 434 kts | 340° |
| 2026-05-07 17:15 | 48.96209 | 11.15638 | 23725 ft | 436 kts | 340° |
| 2026-05-07 17:15 | 48.99088 | 11.14263 | 24328 ft | 438 kts | 340° |
| 2026-05-07 17:15 | 49.01996 | 11.12861 | 24939 ft | 439 kts | 340° |
| 2026-05-07 17:16 | 49.04938 | 11.11424 | 25585 ft | 440 kts | 340° |
| 2026-05-07 17:16 | 49.07836 | 11.09991 | 26245 ft | 439 kts | 340° |
| 2026-05-07 17:16 | 49.10683 | 11.08569 | 26897 ft | 437 kts | 340° |
| 2026-05-07 17:16 | 49.13540 | 11.07130 | 27557 ft | 435 kts | 340° |
| 2026-05-07 17:17 | 49.16426 | 11.05670 | 28230 ft | 433 kts | 340° |
| 2026-05-07 17:17 | 49.19266 | 11.04228 | 28985 ft | 428 kts | 340° |
| 2026-05-07 17:17 | 49.22041 | 11.02811 | 29876 ft | 419 kts | 340° |
| 2026-05-07 17:17 | 49.24748 | 11.01424 | 30721 ft | 410 kts | 340° |
| 2026-05-07 17:18 | 49.27430 | 11.00043 | 31052 ft | 413 kts | 340° |
| 2026-05-07 17:18 | 49.30142 | 10.98643 | 31306 ft | 417 kts | 340° |
| 2026-05-07 17:18 | 49.32894 | 10.97220 | 31529 ft | 420 kts | 340° |
| 2026-05-07 17:18 | 49.35648 | 10.95591 | 31751 ft | 422 kts | 334° |
| 2026-05-07 17:19 | 49.38240 | 10.93541 | 31961 ft | 424 kts | 328° |
| 2026-05-07 17:19 | 49.40607 | 10.90867 | 32020 ft | 425 kts | 316° |
| 2026-05-07 17:19 | 49.44516 | 10.84111 | 32028 ft | 422 kts | 308° |
| 2026-05-07 17:20 | 49.48079 | 10.77048 | 32025 ft | 424 kts | 307° |
| 2026-05-07 17:20 | 49.51693 | 10.69886 | 32020 ft | 423 kts | 308° |
| 2026-05-07 17:21 | 49.55323 | 10.62824 | 32026 ft | 424 kts | 308° |
| 2026-05-07 17:21 | 49.59000 | 10.55744 | 32020 ft | 424 kts | 309° |
| 2026-05-07 17:22 | 49.62685 | 10.48671 | 32024 ft | 424 kts | 309° |
| 2026-05-07 17:22 | 49.66359 | 10.41559 | 32024 ft | 425 kts | 307° |
| 2026-05-07 17:23 | 49.69751 | 10.34146 | 32026 ft | 425 kts | 303° |
| 2026-05-07 17:23 | 49.72980 | 10.26643 | 32031 ft | 426 kts | 303° |
| 2026-05-07 17:24 | 49.76254 | 10.19031 | 32037 ft | 427 kts | 303° |
| 2026-05-07 17:24 | 49.79543 | 10.11448 | 32034 ft | 427 kts | 304° |
| 2026-05-07 17:25 | 49.82865 | 10.03818 | 32037 ft | 428 kts | 304° |
| 2026-05-07 17:25 | 49.86170 | 9.96231 | 32036 ft | 428 kts | 304° |
| 2026-05-07 17:26 | 49.89499 | 9.88575 | 32041 ft | 427 kts | 304° |
| 2026-05-07 17:26 | 49.92788 | 9.80989 | 32038 ft | 428 kts | 304° |
| 2026-05-07 17:27 | 49.96073 | 9.73394 | 32040 ft | 428 kts | 304° |
| 2026-05-07 17:27 | 49.99382 | 9.65721 | 32034 ft | 428 kts | 304° |
| 2026-05-07 17:28 | 50.02668 | 9.58079 | 32033 ft | 429 kts | 304° |
| 2026-05-07 17:28 | 50.05510 | 9.50101 | 32024 ft | 428 kts | 291° |
| 2026-05-07 17:29 | 50.06298 | 9.45639 | 32030 ft | 428 kts | 280° |
| 2026-05-07 17:29 | 50.06595 | 9.41015 | 32033 ft | 429 kts | 274° |
| 2026-05-07 17:29 | 50.06620 | 9.31819 | 32035 ft | 429 kts | 269° |
| 2026-05-07 17:30 | 50.06451 | 9.22657 | 32044 ft | 429 kts | 269° |
| 2026-05-07 17:30 | 50.06266 | 9.13507 | 32042 ft | 429 kts | 269° |
| 2026-05-07 17:31 | 50.06094 | 9.04249 | 32040 ft | 428 kts | 269° |
| 2026-05-07 17:31 | 50.05931 | 8.95046 | 32042 ft | 429 kts | 269° |
| 2026-05-07 17:32 | 50.05770 | 8.85830 | 32040 ft | 429 kts | 269° |
| 2026-05-07 17:32 | 50.05637 | 8.78222 | 32042 ft | 428 kts | 270° |
| 2026-05-07 17:33 | 50.05512 | 8.67783 | 32039 ft | 429 kts | 270° |
| 2026-05-07 17:33 | 50.05422 | 8.58521 | 32047 ft | 428 kts | 270° |
| 2026-05-07 17:34 | 50.05327 | 8.49411 | 32046 ft | 428 kts | 270° |
| 2026-05-07 17:34 | 50.05218 | 8.40129 | 32036 ft | 427 kts | 270° |
| 2026-05-07 17:35 | 50.05098 | 8.30963 | 32036 ft | 427 kts | 269° |
| 2026-05-07 17:35 | 50.04969 | 8.21758 | 32038 ft | 427 kts | 269° |
| 2026-05-07 17:36 | 50.04824 | 8.12530 | 32032 ft | 427 kts | 269° |
| 2026-05-07 17:36 | 50.04212 | 8.03337 | 32028 ft | 429 kts | 262° |
| 2026-05-07 17:37 | 50.03096 | 7.94437 | 32026 ft | 430 kts | 259° |
| 2026-05-07 17:37 | 50.01890 | 7.85770 | 32021 ft | 429 kts | 259° |
| 2026-05-07 17:38 | 50.00626 | 7.76723 | 32022 ft | 428 kts | 259° |
| 2026-05-07 17:38 | 49.99404 | 7.67895 | 32022 ft | 427 kts | 259° |
| 2026-05-07 17:39 | 49.98209 | 7.58982 | 32021 ft | 428 kts | 260° |
| 2026-05-07 17:39 | 49.97018 | 7.49923 | 32029 ft | 428 kts | 260° |
| 2026-05-07 17:40 | 49.95821 | 7.40861 | 32030 ft | 428 kts | 260° |
| 2026-05-07 17:40 | 49.94623 | 7.31871 | 32032 ft | 428 kts | 259° |
| 2026-05-07 17:41 | 49.93409 | 7.22852 | 32036 ft | 427 kts | 259° |
| 2026-05-07 17:41 | 49.92190 | 7.13861 | 32034 ft | 427 kts | 259° |
| 2026-05-07 17:42 | 49.90963 | 7.04870 | 32030 ft | 427 kts | 259° |
| 2026-05-07 17:42 | 49.89715 | 6.95791 | 32036 ft | 427 kts | 259° |
| 2026-05-07 17:43 | 49.88473 | 6.86800 | 32032 ft | 427 kts | 259° |
| 2026-05-07 17:43 | 49.87214 | 6.77751 | 32031 ft | 426 kts | 259° |
| 2026-05-07 17:44 | 49.85966 | 6.68835 | 32023 ft | 425 kts | 259° |
| 2026-05-07 17:44 | 49.84703 | 6.59861 | 32022 ft | 425 kts | 259° |
| 2026-05-07 17:45 | 49.83441 | 6.50952 | 32025 ft | 424 kts | 258° |
| 2026-05-07 17:45 | 49.82164 | 6.41985 | 32028 ft | 425 kts | 258° |
| 2026-05-07 17:46 | 49.80894 | 6.33126 | 32028 ft | 424 kts | 258° |
| 2026-05-07 17:46 | 49.80257 | 6.28703 | 31903 ft | 420 kts | 258° |
| 2026-05-07 17:46 | 49.79625 | 6.24320 | 31490 ft | 418 kts | 258° |
| 2026-05-07 17:47 | 49.78994 | 6.19963 | 31107 ft | 420 kts | 258° |
| 2026-05-07 17:47 | 49.78357 | 6.15568 | 31032 ft | 420 kts | 257° |
| 2026-05-07 17:47 | 49.77060 | 6.06673 | 31027 ft | 425 kts | 258° |
| 2026-05-07 17:48 | 49.75768 | 5.97866 | 31028 ft | 423 kts | 257° |
| 2026-05-07 17:48 | 49.74477 | 5.89093 | 31028 ft | 424 kts | 258° |
| 2026-05-07 17:49 | 49.72846 | 5.80386 | 31027 ft | 424 kts | 251° |
| 2026-05-07 17:49 | 49.70825 | 5.71851 | 31020 ft | 425 kts | 250° |
| 2026-05-07 17:50 | 49.68758 | 5.63361 | 31018 ft | 426 kts | 250° |
| 2026-05-07 17:50 | 49.66708 | 5.54827 | 31019 ft | 425 kts | 251° |
| 2026-05-07 17:51 | 49.64684 | 5.46313 | 31016 ft | 425 kts | 251° |
| 2026-05-07 17:51 | 49.62664 | 5.37784 | 31018 ft | 423 kts | 251° |
| 2026-05-07 17:52 | 49.60735 | 5.29202 | 31020 ft | 423 kts | 252° |
| 2026-05-07 17:52 | 49.58928 | 5.20649 | 30957 ft | 422 kts | 253° |
| 2026-05-07 17:53 | 49.58093 | 5.16357 | 30510 ft | 418 kts | 254° |
| 2026-05-07 17:53 | 49.57317 | 5.12003 | 29661 ft | 422 kts | 255° |
| 2026-05-07 17:53 | 49.56572 | 5.07653 | 28805 ft | 425 kts | 255° |
| 2026-05-07 17:53 | 49.55825 | 5.03261 | 27943 ft | 427 kts | 255° |
| 2026-05-07 17:54 | 49.55068 | 4.98834 | 27083 ft | 429 kts | 255° |
| 2026-05-07 17:54 | 49.54310 | 4.94446 | 26231 ft | 431 kts | 255° |
| 2026-05-07 17:54 | 49.53536 | 4.90022 | 25376 ft | 432 kts | 255° |
| 2026-05-07 17:54 | 49.52745 | 4.85539 | 24502 ft | 433 kts | 255° |
| 2026-05-07 17:55 | 49.51953 | 4.81090 | 23643 ft | 433 kts | 255° |
| 2026-05-07 17:55 | 49.51165 | 4.76687 | 22803 ft | 433 kts | 255° |
| 2026-05-07 17:55 | 49.50357 | 4.72193 | 21951 ft | 433 kts | 255° |
| 2026-05-07 17:55 | 49.49555 | 4.67753 | 21110 ft | 432 kts | 255° |
| 2026-05-07 17:56 | 49.48752 | 4.63322 | 20373 ft | 429 kts | 255° |
| 2026-05-07 17:56 | 49.47950 | 4.58909 | 19714 ft | 424 kts | 255° |
| 2026-05-07 17:56 | 49.47171 | 4.54636 | 19071 ft | 419 kts | 255° |
| 2026-05-07 17:56 | 49.46386 | 4.50344 | 18424 ft | 414 kts | 255° |
| 2026-05-07 17:57 | 49.45609 | 4.46096 | 17783 ft | 409 kts | 255° |
| 2026-05-07 17:57 | 49.45104 | 4.43344 | 17363 ft | 406 kts | 255° |
| 2026-05-07 17:57 | 49.44083 | 4.37793 | 16507 ft | 400 kts | 255° |
| 2026-05-07 17:57 | 49.43337 | 4.33742 | 16133 ft | 389 kts | 254° |
| 2026-05-07 17:58 | 49.42620 | 4.29866 | 15831 ft | 377 kts | 254° |
| 2026-05-07 17:58 | 49.41904 | 4.26000 | 15521 ft | 365 kts | 254° |
| 2026-05-07 17:58 | 49.41223 | 4.22330 | 15218 ft | 355 kts | 254° |
| 2026-05-07 17:58 | 49.40549 | 4.18700 | 14911 ft | 345 kts | 254° |
| 2026-05-07 17:59 | 49.39903 | 4.15235 | 14602 ft | 336 kts | 253° |
| 2026-05-07 17:59 | 49.39267 | 4.11826 | 14303 ft | 327 kts | 253° |
| 2026-05-07 17:59 | 49.38646 | 4.08503 | 13994 ft | 319 kts | 253° |
| 2026-05-07 17:59 | 49.38039 | 4.05261 | 13689 ft | 312 kts | 253° |
| 2026-05-07 18:00 | 49.37449 | 4.02135 | 13398 ft | 305 kts | 253° |
| 2026-05-07 18:00 | 49.36857 | 3.99015 | 13093 ft | 299 kts | 253° |
| 2026-05-07 18:00 | 49.36158 | 3.96050 | 12791 ft | 293 kts | 246° |
| 2026-05-07 18:00 | 49.35283 | 3.93251 | 12489 ft | 288 kts | 243° |
| 2026-05-07 18:01 | 49.34363 | 3.90578 | 12189 ft | 283 kts | 242° |
| 2026-05-07 18:01 | 49.33442 | 3.87933 | 11885 ft | 278 kts | 242° |
| 2026-05-07 18:01 | 49.32556 | 3.85347 | 11584 ft | 274 kts | 243° |
| 2026-05-07 18:01 | 49.31673 | 3.82726 | 11279 ft | 271 kts | 243° |
| 2026-05-07 18:02 | 49.30014 | 3.77756 | 11004 ft | 251 kts | 243° |
| 2026-05-07 18:02 | 49.29244 | 3.75445 | 11011 ft | 242 kts | 243° |
| 2026-05-07 18:02 | 49.28464 | 3.73110 | 11020 ft | 243 kts | 243° |
| 2026-05-07 18:03 | 49.27696 | 3.70813 | 11025 ft | 243 kts | 243° |
| 2026-05-07 18:03 | 49.26928 | 3.68505 | 11027 ft | 243 kts | 245° |
| 2026-05-07 18:03 | 49.26372 | 3.66091 | 11022 ft | 243 kts | 262° |
| 2026-05-07 18:03 | 49.26550 | 3.63533 | 11031 ft | 246 kts | 293° |
| 2026-05-07 18:04 | 49.27551 | 3.61404 | 11032 ft | 250 kts | 318° |
| 2026-05-07 18:04 | 49.29014 | 3.59978 | 11027 ft | 252 kts | 338° |
| 2026-05-07 18:04 | 49.30763 | 3.59579 | 11023 ft | 256 kts | 8° |
| 2026-05-07 18:04 | 49.32394 | 3.60576 | 11033 ft | 259 kts | 37° |
| 2026-05-07 18:05 | 49.33625 | 3.62568 | 11030 ft | 259 kts | 58° |
| 2026-05-07 18:05 | 49.34502 | 3.64999 | 11027 ft | 259 kts | 64° |
| 2026-05-07 18:05 | 49.35287 | 3.67482 | 11026 ft | 258 kts | 65° |
| 2026-05-07 18:05 | 49.36069 | 3.69953 | 11026 ft | 259 kts | 64° |
| 2026-05-07 18:06 | 49.36868 | 3.72416 | 11025 ft | 258 kts | 64° |
| 2026-05-07 18:06 | 49.37690 | 3.74915 | 11028 ft | 259 kts | 63° |
| 2026-05-07 18:06 | 49.38462 | 3.77393 | 11025 ft | 259 kts | 69° |
| 2026-05-07 18:06 | 49.38843 | 3.80080 | 11021 ft | 258 kts | 95° |
| 2026-05-07 18:07 | 49.38311 | 3.82630 | 11031 ft | 255 kts | 128° |
| 2026-05-07 18:07 | 49.36996 | 3.84407 | 11032 ft | 251 kts | 156° |
| 2026-05-07 18:07 | 49.35328 | 3.85111 | 11030 ft | 248 kts | 179° |
| 2026-05-07 18:07 | 49.33604 | 3.84952 | 11024 ft | 247 kts | 194° |
| 2026-05-07 18:08 | 49.32066 | 3.83867 | 11026 ft | 252 kts | 224° |
| 2026-05-07 18:08 | 49.30997 | 3.81593 | 11042 ft | 276 kts | 243° |
| 2026-05-07 18:08 | 49.30156 | 3.78781 | 11021 ft | 302 kts | 246° |
| 2026-05-07 18:08 | 49.29261 | 3.75750 | 11023 ft | 326 kts | 245° |
| 2026-05-07 18:09 | 49.28243 | 3.72492 | 11023 ft | 350 kts | 244° |
| 2026-05-07 18:09 | 49.27107 | 3.69021 | 11023 ft | 371 kts | 243° |
| 2026-05-07 18:09 | 49.25870 | 3.65524 | 11018 ft | 376 kts | 241° |
| 2026-05-07 18:09 | 49.24564 | 3.62058 | 11021 ft | 377 kts | 240° |
| 2026-05-07 18:10 | 49.23220 | 3.58589 | 11020 ft | 376 kts | 240° |
| 2026-05-07 18:10 | 49.22006 | 3.55068 | 11018 ft | 375 kts | 245° |
| 2026-05-07 18:10 | 49.20972 | 3.51386 | 11020 ft | 375 kts | 248° |
| 2026-05-07 18:10 | 49.20020 | 3.47696 | 11017 ft | 376 kts | 249° |
| 2026-05-07 18:11 | 49.19076 | 3.43944 | 11016 ft | 376 kts | 249° |
| 2026-05-07 18:11 | 49.18446 | 3.41431 | 11015 ft | 375 kts | 250° |
| 2026-05-07 18:11 | 49.17205 | 3.36478 | 11022 ft | 376 kts | 250° |
| 2026-05-07 18:11 | 49.16269 | 3.32741 | 11023 ft | 377 kts | 249° |
| 2026-05-07 18:12 | 49.15334 | 3.29000 | 11026 ft | 377 kts | 249° |
| 2026-05-07 18:12 | 49.14406 | 3.25287 | 11027 ft | 377 kts | 249° |
| 2026-05-07 18:12 | 49.13460 | 3.21497 | 11026 ft | 376 kts | 249° |
| 2026-05-07 18:12 | 49.12537 | 3.17803 | 11026 ft | 376 kts | 249° |
| 2026-05-07 18:13 | 49.11602 | 3.14059 | 11028 ft | 376 kts | 249° |
| 2026-05-07 18:13 | 49.10675 | 3.10348 | 11027 ft | 376 kts | 249° |
| 2026-05-07 18:13 | 49.09739 | 3.06596 | 11026 ft | 375 kts | 249° |
| 2026-05-07 18:13 | 49.08738 | 3.02933 | 11024 ft | 375 kts | 245° |
| 2026-05-07 18:14 | 49.07567 | 2.99372 | 11026 ft | 374 kts | 242° |
| 2026-05-07 18:14 | 49.06334 | 2.95903 | 11035 ft | 374 kts | 242° |
| 2026-05-07 18:14 | 49.05081 | 2.92400 | 11023 ft | 374 kts | 242° |
| 2026-05-07 18:14 | 49.03861 | 2.88922 | 11029 ft | 374 kts | 243° |
| 2026-05-07 18:15 | 49.02659 | 2.85413 | 11026 ft | 374 kts | 243° |
| 2026-05-07 18:15 | 49.01472 | 2.81892 | 11033 ft | 374 kts | 243° |
| 2026-05-07 18:15 | 49.00277 | 2.78314 | 11023 ft | 375 kts | 243° |
| 2026-05-07 18:15 | 48.99108 | 2.74801 | 11013 ft | 374 kts | 244° |
| 2026-05-07 18:16 | 48.97921 | 2.71231 | 11027 ft | 376 kts | 244° |
| 2026-05-07 18:16 | 48.96771 | 2.67779 | 11029 ft | 375 kts | 244° |
| 2026-05-07 18:16 | 48.95593 | 2.64252 | 11029 ft | 374 kts | 243° |
| 2026-05-07 18:16 | 48.94429 | 2.60771 | 11027 ft | 374 kts | 243° |
| 2026-05-07 18:17 | 48.93246 | 2.57241 | 11026 ft | 374 kts | 243° |
| 2026-05-07 18:17 | 48.92054 | 2.53690 | 11024 ft | 374 kts | 243° |
| 2026-05-07 18:17 | 48.90876 | 2.50186 | 11023 ft | 371 kts | 243° |
| 2026-05-07 18:17 | 48.89742 | 2.46818 | 11019 ft | 350 kts | 243° |
| 2026-05-07 18:18 | 48.88663 | 2.43618 | 11020 ft | 331 kts | 243° |
| 2026-05-07 18:18 | 48.87645 | 2.40602 | 11019 ft | 313 kts | 243° |
| 2026-05-07 18:18 | 48.86676 | 2.37733 | 11015 ft | 296 kts | 243° |
| 2026-05-07 18:18 | 48.85768 | 2.35045 | 11014 ft | 280 kts | 244° |
| 2026-05-07 18:19 | 48.84903 | 2.32490 | 11014 ft | 264 kts | 243° |
| 2026-05-07 18:19 | 48.84093 | 2.30098 | 10968 ft | 251 kts | 243° |
| 2026-05-07 18:19 | 48.83295 | 2.27743 | 10658 ft | 250 kts | 243° |
| 2026-05-07 18:19 | 48.82491 | 2.25373 | 10329 ft | 249 kts | 243° |
| 2026-05-07 18:20 | 48.81708 | 2.23069 | 10019 ft | 248 kts | 243° |
| 2026-05-07 18:20 | 48.80922 | 2.20756 | 9700 ft | 247 kts | 243° |
| 2026-05-07 18:20 | 48.80135 | 2.18446 | 9368 ft | 246 kts | 243° |
| 2026-05-07 18:20 | 48.79356 | 2.16161 | 9055 ft | 245 kts | 242° |
| 2026-05-07 18:21 | 48.78572 | 2.13860 | 8724 ft | 245 kts | 242° |
| 2026-05-07 18:21 | 48.77791 | 2.11572 | 8408 ft | 244 kts | 242° |
| 2026-05-07 18:21 | 48.77012 | 2.09294 | 8080 ft | 244 kts | 242° |
| 2026-05-07 18:21 | 48.76232 | 2.07013 | 7760 ft | 244 kts | 242° |
| 2026-05-07 18:22 | 48.75452 | 2.04733 | 7434 ft | 244 kts | 242° |
| 2026-05-07 18:22 | 48.74929 | 2.03207 | 7229 ft | 243 kts | 242° |
| 2026-05-07 18:22 | 48.73899 | 2.00181 | 6785 ft | 244 kts | 242° |
| 2026-05-07 18:22 | 48.73125 | 1.97904 | 6471 ft | 244 kts | 242° |
| 2026-05-07 18:23 | 48.72338 | 1.95638 | 6199 ft | 241 kts | 238° |
| 2026-05-07 18:23 | 48.71312 | 1.93630 | 5929 ft | 238 kts | 218° |
| 2026-05-07 18:23 | 48.69855 | 1.92647 | 5744 ft | 227 kts | 186° |
| 2026-05-07 18:23 | 48.68325 | 1.92820 | 5540 ft | 218 kts | 164° |
| 2026-05-07 18:24 | 48.66926 | 1.93630 | 5326 ft | 212 kts | 153° |
| 2026-05-07 18:24 | 48.65662 | 1.94622 | 5184 ft | 202 kts | 151° |
| 2026-05-07 18:24 | 48.64447 | 1.95606 | 5050 ft | 192 kts | 151° |
| 2026-05-07 18:24 | 48.63293 | 1.96518 | 4935 ft | 185 kts | 152° |
| 2026-05-07 18:25 | 48.62192 | 1.97547 | 4861 ft | 186 kts | 133° |
| 2026-05-07 18:25 | 48.61610 | 1.99234 | 4782 ft | 185 kts | 98° |
| 2026-05-07 18:25 | 48.61600 | 2.01165 | 4702 ft | 185 kts | 82° |
| 2026-05-07 18:25 | 48.61906 | 2.03051 | 4624 ft | 185 kts | 70° |
| 2026-05-07 18:26 | 48.62425 | 2.04840 | 4421 ft | 188 kts | 64° |
| 2026-05-07 18:26 | 48.63025 | 2.06585 | 4097 ft | 189 kts | 62° |
| 2026-05-07 18:26 | 48.63647 | 2.08329 | 3839 ft | 187 kts | 62° |
| 2026-05-07 18:26 | 48.64267 | 2.10054 | 3579 ft | 185 kts | 62° |
| 2026-05-07 18:27 | 48.64879 | 2.11759 | 3319 ft | 183 kts | 62° |
| 2026-05-07 18:27 | 48.65480 | 2.13436 | 3067 ft | 181 kts | 62° |
| 2026-05-07 18:27 | 48.66058 | 2.15053 | 2828 ft | 171 kts | 62° |
| 2026-05-07 18:27 | 48.66431 | 2.16093 | 2674 ft | 162 kts | 62° |
| 2026-05-07 18:28 | 48.67111 | 2.17997 | 2388 ft | 154 kts | 62° |
| 2026-05-07 18:28 | 48.67617 | 2.19414 | 2178 ft | 153 kts | 62° |
| 2026-05-07 18:28 | 48.68119 | 2.20818 | 1970 ft | 151 kts | 62° |
| 2026-05-07 18:28 | 48.68615 | 2.22208 | 1768 ft | 150 kts | 62° |
| 2026-05-07 18:29 | 48.69111 | 2.23598 | 1566 ft | 148 kts | 62° |
| 2026-05-07 18:29 | 48.69597 | 2.24964 | 1367 ft | 148 kts | 62° |
| 2026-05-07 18:29 | 48.70083 | 2.26337 | 1155 ft | 148 kts | 63° |
| 2026-05-07 18:29 | 48.70578 | 2.27723 | 938 ft | 149 kts | 61° |
| 2026-05-07 18:30 | 48.71071 | 2.29087 | 738 ft | 148 kts | 62° |
| 2026-05-07 18:30 | 48.71567 | 2.30449 | 557 ft | 146 kts | 62° |
| 2026-05-07 18:30 | 48.72041 | 2.31808 | 365 ft | 146 kts | 62° |
| 2026-05-07 18:30 | 48.72392 | 2.32797 | 292 ft | 136 kts | 63° |
| 2026-05-07 18:31 | 48.72758 | 2.33841 | 288 ft | 51 kts | 62° |
| 2026-05-07 18:31 | 48.72926 | 2.34316 | 286 ft | 36 kts | 61° |
| 2026-05-07 18:31 | 48.72995 | 2.34593 | 287 ft | 16 kts | 81° |
| 2026-05-07 18:31 | 48.73011 | 2.34761 | 287 ft | 15 kts | 82° |
| 2026-05-07 18:32 | 48.73026 | 2.34919 | 288 ft | 14 kts | 80° |
| 2026-05-07 18:32 | 48.73040 | 2.35053 | 290 ft | 11 kts | 82° |
| 2026-05-07 18:32 | 48.73032 | 2.35182 | 291 ft | 15 kts | 110° |
| 2026-05-07 18:32 | 48.72955 | 2.35301 | 291 ft | 15 kts | 152° |
| 2026-05-07 18:33 | 48.72882 | 2.35412 | 291 ft | 14 kts | 142° |
| 2026-05-07 18:33 | 48.72791 | 2.35461 | 291 ft | 13 kts | 160° |
| 2026-05-07 18:33 | 48.72759 | 2.35562 | 291 ft | 10 kts | 81° |
| 2026-05-07 18:33 | 48.72778 | 2.35668 | 291 ft | 10 kts | 73° |
| 2026-05-07 18:34 | 48.72805 | 2.35735 | 291 ft | 6 kts | 26° |
| 2026-05-07 18:34 | 48.72833 | 2.35750 | 291 ft | 0 kts | 15° |
| 2026-05-07 18:39 | 48.72834 | 2.35750 | 291 ft | 0 kts | 15° |